Time;durP1;ratioP1;P1;durP2;ratioP2;P2;SDS_P1;SDS_P2;PMS_P1;PMS_P2;Temp;Humidity;BMP_temperature;BMP_pressure;BME280_temperature;BME280_humidity;BME280_pressure;Samples;Min_cycle;Max_cycle;Signal;HPM_P1;HPM_P2
2022/10/16 00:00:42;;;;;;;4.30;1.85;;;13.00;99.90;;;;;;5050317;28;20045;-67
2022/10/16 00:03:09;;;;;;;4.40;2.10;;;13.00;99.90;;;;;;5050692;28;20175;-68
2022/10/16 00:05:42;;;;;;;6.43;2.03;;;13.00;99.90;;;;;;5050021;28;20076;-67
2022/10/16 00:08:09;;;;;;;6.15;2.17;;;12.90;99.90;;;;;;5050808;28;20037;-67
2022/10/16 00:10:35;;;;;;;5.15;1.80;;;12.90;99.90;;;;;;5064110;28;20036;-67
2022/10/16 00:13:01;;;;;;;8.73;2.05;;;13.00;99.90;;;;;;5070227;28;20049;-67
2022/10/16 00:15:26;;;;;;;4.68;1.85;;;13.00;99.90;;;;;;5070109;28;20040;-67
2022/10/16 00:17:52;;;;;;;5.13;2.03;;;13.00;99.90;;;;;;5069537;28;20072;-67
2022/10/16 00:20:18;;;;;;;3.80;1.75;;;12.90;99.90;;;;;;5068960;28;20520;-67
2022/10/16 00:22:43;;;;;;;2.78;1.98;;;12.90;99.90;;;;;;5070508;28;20041;-67
2022/10/16 00:25:09;;;;;;;6.47;2.30;;;12.90;99.90;;;;;;5070078;28;20047;-67
2022/10/16 00:27:34;;;;;;;5.00;2.28;;;12.90;99.90;;;;;;5069331;28;20063;-67
2022/10/16 00:30:00;;;;;;;7.05;1.90;;;12.90;99.90;;;;;;5070414;28;20040;-67
2022/10/16 00:32:26;;;;;;;3.47;1.88;;;12.90;99.90;;;;;;5069081;28;20390;-67
2022/10/16 00:34:54;;;;;;;4.47;2.05;;;12.90;99.90;;;;;;5068701;28;20693;-67
2022/10/16 00:37:20;;;;;;;5.63;2.30;;;12.90;99.90;;;;;;5070473;28;20048;-68
2022/10/16 00:39:45;;;;;;;3.08;1.75;;;13.00;99.90;;;;;;5070212;28;20124;-67
2022/10/16 00:42:15;;;;;;;4.35;2.00;;;12.90;99.90;;;;;;5070277;28;20072;-67
2022/10/16 00:44:49;;;;;;;8.20;2.10;;;12.90;99.90;;;;;;5069917;28;20041;-67
2022/10/16 00:47:31;;;;;;;7.00;2.58;;;12.90;99.90;;;;;;5070439;28;20040;-67
2022/10/16 00:50:07;;;;;;;5.97;2.55;;;12.90;99.90;;;;;;5070422;28;20098;-67
2022/10/16 00:52:33;;;;;;;4.93;2.45;;;12.80;99.90;;;;;;5070432;28;20708;-67
2022/10/16 00:55:01;;;;;;;6.50;2.05;;;12.80;99.90;;;;;;5069911;28;20036;-67
2022/10/16 00:57:27;;;;;;;5.68;2.20;;;12.80;99.90;;;;;;5070086;28;20115;-67
2022/10/16 00:59:53;;;;;;;4.07;2.35;;;12.80;99.90;;;;;;5068606;28;20128;-67
2022/10/16 01:02:19;;;;;;;4.05;2.13;;;12.80;99.90;;;;;;5051288;28;20037;-67
2022/10/16 01:04:47;;;;;;;3.97;2.20;;;12.70;99.90;;;;;;5049626;28;20040;-67
2022/10/16 01:07:16;;;;;;;4.65;2.20;;;12.70;99.90;;;;;;5050120;28;20099;-67
2022/10/16 01:10:01;;;;;;;9.43;2.53;;;12.70;99.90;;;;;;5048899;28;20466;-67
2022/10/16 01:12:53;;;;;;;4.72;2.40;;;12.70;99.90;;;;;;5051639;28;20517;-67
2022/10/16 01:15:32;;;;;;;7.78;3.15;;;12.70;99.90;;;;;;5053296;28;20052;-67
2022/10/16 01:18:30;;;;;;;4.90;2.20;;;12.70;99.90;;;;;;5053631;28;20116;-67
2022/10/16 01:21:03;;;;;;;4.35;2.20;;;12.70;99.90;;;;;;5053298;28;20052;-67
2022/10/16 01:23:51;;;;;;;6.38;2.30;;;12.60;99.90;;;;;;5053616;28;20041;-67
2022/10/16 01:26:30;;;;;;;6.85;2.28;;;12.60;99.90;;;;;;5053352;28;20037;-67
2022/10/16 01:29:06;;;;;;;4.57;2.17;;;12.60;99.90;;;;;;5053267;28;20398;-67
2022/10/16 01:31:36;;;;;;;4.32;2.47;;;12.60;99.90;;;;;;5068531;28;20431;-67
2022/10/16 01:34:10;;;;;;;11.15;2.78;;;12.60;99.90;;;;;;5052898;28;20505;-67
2022/10/16 01:36:41;;;;;;;3.63;2.30;;;12.60;99.90;;;;;;5053165;28;20089;-67
2022/10/16 01:39:10;;;;;;;4.07;2.88;;;12.60;99.90;;;;;;5053079;28;20052;-67
2022/10/16 01:41:46;;;;;;;6.30;2.70;;;12.60;99.90;;;;;;5052864;28;20051;-67
2022/10/16 01:44:23;;;;;;;5.32;2.45;;;12.60;99.90;;;;;;5051330;28;20516;-67
2022/10/16 01:46:52;;;;;;;5.15;2.40;;;12.60;99.90;;;;;;5053042;28;20245;-67
2022/10/16 01:49:21;;;;;;;5.18;2.50;;;12.60;99.90;;;;;;5051592;28;20080;-67
2022/10/16 01:51:51;;;;;;;6.53;2.95;;;12.60;99.90;;;;;;5068110;28;20052;-67
2022/10/16 01:54:19;;;;;;;4.88;2.55;;;12.60;99.90;;;;;;5052700;28;20106;-67
2022/10/16 01:56:47;;;;;;;4.97;2.58;;;12.60;99.90;;;;;;5068026;28;20040;-67
2022/10/16 01:59:16;;;;;;;2.97;2.25;;;12.50;99.90;;;;;;5052932;28;20071;-67
2022/10/16 02:01:50;;;;;;;4.18;2.58;;;12.50;99.90;;;;;;5052631;28;20041;-67
2022/10/16 02:04:31;;;;;;;4.15;2.70;;;12.60;99.90;;;;;;5052256;28;20143;-67
2022/10/16 02:06:57;;;;;;;6.32;3.08;;;12.50;99.90;;;;;;5051254;28;20167;-67
2022/10/16 02:09:22;;;;;;;6.30;2.40;;;12.60;99.90;;;;;;5052568;28;20073;-67
2022/10/16 02:11:51;;;;;;;2.97;2.38;;;12.60;99.90;;;;;;5052570;28;20045;-67
2022/10/16 02:14:17;;;;;;;7.43;2.65;;;12.60;99.90;;;;;;5051925;28;20040;-67
2022/10/16 02:16:45;;;;;;;4.85;2.45;;;12.60;99.90;;;;;;5052739;28;20048;-67
2022/10/16 02:19:14;;;;;;;5.47;2.58;;;12.60;99.90;;;;;;5051228;28;20033;-67
2022/10/16 02:22:04;;;;;;;4.35;2.70;;;12.70;99.90;;;;;;5052357;28;20041;-67
2022/10/16 02:24:53;;;;;;;5.00;2.22;;;12.70;99.90;;;;;;5051901;28;20032;-67
2022/10/16 02:27:27;;;;;;;6.95;2.42;;;12.60;99.90;;;;;;5052249;28;20056;-67
2022/10/16 02:29:59;;;;;;;4.07;2.50;;;12.60;99.90;;;;;;5050825;28;20044;-67
2022/10/16 02:32:30;;;;;;;3.07;2.50;;;12.60;99.90;;;;;;5052248;28;20048;-67
2022/10/16 02:34:58;;;;;;;4.63;3.13;;;12.60;99.90;;;;;;5051880;28;20060;-67
2022/10/16 02:37:25;;;;;;;3.70;2.33;;;12.70;99.90;;;;;;5067610;28;20067;-67
2022/10/16 02:39:51;;;;;;;3.58;2.55;;;12.60;99.90;;;;;;5050385;28;20528;-68
2022/10/16 02:42:18;;;;;;;4.45;2.88;;;12.70;99.90;;;;;;5052072;28;20033;-67
2022/10/16 02:44:43;;;;;;;2.40;2.10;;;12.70;99.90;;;;;;5051601;28;20052;-67
2022/10/16 02:47:09;;;;;;;3.75;2.47;;;12.70;99.90;;;;;;5051893;28;20033;-67
2022/10/16 02:49:34;;;;;;;3.60;2.38;;;12.70;99.90;;;;;;5051783;28;20409;-67
2022/10/16 02:52:00;;;;;;;3.50;2.10;;;12.70;99.90;;;;;;5051640;28;20041;-67
2022/10/16 02:54:25;;;;;;;2.85;2.20;;;12.70;99.90;;;;;;5051514;28;20041;-68
2022/10/16 02:56:51;;;;;;;3.92;2.20;;;12.80;99.90;;;;;;5051702;28;20071;-67
2022/10/16 02:59:17;;;;;;;6.05;2.53;;;12.80;99.90;;;;;;5051578;28;20124;-67
2022/10/16 03:01:42;;;;;;;4.88;2.30;;;12.80;99.90;;;;;;5051556;28;20575;-67
2022/10/16 03:04:08;;;;;;;3.78;1.95;;;12.80;99.90;;;;;;5051186;28;20060;-67
2022/10/16 03:06:34;;;;;;;3.78;1.92;;;12.90;99.90;;;;;;5066777;28;20044;-67
2022/10/16 03:09:00;;;;;;;3.50;1.95;;;12.90;99.90;;;;;;5051650;28;20037;-67
2022/10/16 03:11:26;;;;;;;5.47;2.13;;;12.90;99.90;;;;;;5051349;28;20541;-67
2022/10/16 03:13:52;;;;;;;3.70;1.85;;;12.90;99.90;;;;;;5051114;28;20076;-67
2022/10/16 03:16:17;;;;;;;2.17;1.98;;;13.00;99.90;;;;;;5051277;28;20075;-68
2022/10/16 03:18:43;;;;;;;4.70;1.90;;;13.00;99.90;;;;;;5051378;28;20077;-67
2022/10/16 03:21:08;;;;;;;4.32;1.95;;;13.00;99.90;;;;;;5051072;28;20041;-67
2022/10/16 03:23:34;;;;;;;2.20;1.70;;;13.00;99.90;;;;;;5066305;28;20091;-67
2022/10/16 03:25:59;;;;;;;3.17;1.80;;;13.10;99.90;;;;;;5050926;28;20044;-67
2022/10/16 03:28:25;;;;;;;4.05;2.17;;;13.10;99.90;;;;;;5051066;28;20075;-67
2022/10/16 03:30:50;;;;;;;3.90;2.13;;;13.00;99.90;;;;;;5051329;28;20033;-67
2022/10/16 03:33:16;;;;;;;6.03;2.00;;;13.10;99.90;;;;;;5051194;28;20122;-67
2022/10/16 03:35:42;;;;;;;2.13;1.60;;;13.10;99.90;;;;;;5050349;28;20044;-67
2022/10/16 03:38:07;;;;;;;4.15;2.00;;;13.10;99.90;;;;;;5051046;28;20052;-67
2022/10/16 03:40:33;;;;;;;5.10;1.98;;;13.10;99.90;;;;;;5051068;28;20045;-67
2022/10/16 03:42:59;;;;;;;3.85;1.70;;;13.10;99.90;;;;;;5050813;28;20080;-67
2022/10/16 03:45:25;;;;;;;4.47;2.00;;;13.10;99.90;;;;;;5050714;28;20094;-67
2022/10/16 03:47:50;;;;;;;2.80;2.08;;;13.10;99.90;;;;;;5050895;28;20134;-67
2022/10/16 03:50:16;;;;;;;2.88;2.13;;;13.10;99.90;;;;;;5050715;28;20036;-67
2022/10/16 03:52:42;;;;;;;3.88;2.22;;;13.10;99.90;;;;;;5050680;28;20033;-67
2022/10/16 03:55:07;;;;;;;2.50;1.75;;;13.10;99.90;;;;;;5050294;28;20033;-67
2022/10/16 03:57:33;;;;;;;2.60;2.10;;;13.10;99.90;;;;;;5050895;28;20063;-67
2022/10/16 03:59:59;;;;;;;3.78;2.10;;;13.10;99.90;;;;;;5050673;28;20041;-67
2022/10/16 04:02:24;;;;;;;3.17;2.25;;;13.10;99.90;;;;;;5050711;28;20091;-67
2022/10/16 04:04:50;;;;;;;6.13;2.13;;;13.10;99.90;;;;;;5050227;28;20444;-67
2022/10/16 04:07:15;;;;;;;3.95;2.40;;;13.10;99.90;;;;;;5049262;28;20112;-67
2022/10/16 04:09:41;;;;;;;4.80;2.47;;;13.10;99.90;;;;;;5050809;28;20037;-67
2022/10/16 04:12:07;;;;;;;3.42;2.22;;;13.10;99.90;;;;;;5050672;28;20048;-67
2022/10/16 04:14:33;;;;;;;3.72;2.30;;;13.10;99.90;;;;;;5049110;28;20047;-67
2022/10/16 04:16:59;;;;;;;5.18;2.28;;;13.10;99.90;;;;;;5050783;28;20041;-67
2022/10/16 04:19:25;;;;;;;3.78;2.50;;;13.00;99.90;;;;;;5050478;28;20052;-67
2022/10/16 04:21:50;;;;;;;3.92;2.90;;;13.00;99.90;;;;;;5050563;28;20044;-67
2022/10/16 04:24:16;;;;;;;4.22;2.75;;;13.00;99.90;;;;;;5050204;28;20033;-67
2022/10/16 04:26:41;;;;;;;2.83;2.40;;;13.00;99.90;;;;;;5050499;28;20037;-67
2022/10/16 04:29:07;;;;;;;6.53;2.88;;;13.00;99.90;;;;;;5050503;28;20040;-67
2022/10/16 04:31:33;;;;;;;5.90;2.63;;;13.00;99.90;;;;;;5050321;28;20040;-67
2022/10/16 04:33:58;;;;;;;4.15;2.22;;;13.00;99.90;;;;;;5050090;28;20126;-67
2022/10/16 04:36:24;;;;;;;9.50;3.20;;;13.00;99.90;;;;;;5050065;28;20072;-67
2022/10/16 04:38:49;;;;;;;5.78;2.47;;;13.00;99.90;;;;;;5050377;28;20041;-67
2022/10/16 04:41:15;;;;;;;4.38;2.97;;;12.90;99.90;;;;;;5050309;28;20047;-67
2022/10/16 04:43:40;;;;;;;5.90;2.75;;;13.00;99.90;;;;;;5065388;28;20044;-67
2022/10/16 04:46:06;;;;;;;3.70;2.28;;;13.00;99.90;;;;;;5050081;28;20033;-67
2022/10/16 04:48:32;;;;;;;3.33;2.53;;;12.90;99.90;;;;;;5053705;28;20063;-67
2022/10/16 04:50:58;;;;;;;4.35;3.00;;;12.90;99.90;;;;;;5053961;28;20037;-67
2022/10/16 04:53:23;;;;;;;3.63;2.60;;;12.90;99.90;;;;;;5053880;28;20516;-67
2022/10/16 04:55:49;;;;;;;6.93;2.90;;;12.90;99.90;;;;;;5053910;28;20049;-67
2022/10/16 04:58:15;;;;;;;4.13;2.35;;;12.90;99.90;;;;;;5053740;28;20045;-67
2022/10/16 05:00:40;;;;;;;5.20;2.70;;;13.00;99.90;;;;;;5069175;28;20047;-67
2022/10/16 05:03:08;;;;;;;6.63;2.90;;;12.90;99.90;;;;;;5073840;28;20051;-67
2022/10/16 05:05:34;;;;;;;4.13;3.08;;;12.90;99.90;;;;;;5073188;28;20497;-67
2022/10/16 05:08:00;;;;;;;3.45;2.78;;;12.90;99.90;;;;;;5073882;28;20048;-67
2022/10/16 05:10:26;;;;;;;4.30;2.60;;;12.90;99.90;;;;;;5073836;28;20040;-67
2022/10/16 05:12:51;;;;;;;7.60;3.28;;;12.90;99.90;;;;;;5073528;28;20548;-67
2022/10/16 05:15:18;;;;;;;5.35;2.70;;;12.90;99.90;;;;;;5073212;28;20052;-67
2022/10/16 05:17:44;;;;;;;4.10;2.72;;;12.90;99.90;;;;;;5072247;28;20523;-67
2022/10/16 05:20:10;;;;;;;3.25;2.80;;;12.90;99.90;;;;;;5073548;28;20041;-67
2022/10/16 05:22:35;;;;;;;6.20;3.65;;;12.90;99.90;;;;;;5073404;28;20047;-67
2022/10/16 05:25:01;;;;;;;6.68;2.50;;;12.90;99.90;;;;;;5073100;28;20146;-67
2022/10/16 05:27:26;;;;;;;5.35;2.97;;;12.90;99.90;;;;;;5073505;28;20039;-67
2022/10/16 05:29:52;;;;;;;4.28;2.75;;;12.80;99.90;;;;;;5073314;28;20047;-67
2022/10/16 05:32:18;;;;;;;4.40;2.47;;;12.80;99.90;;;;;;5073497;28;20040;-67
2022/10/16 05:34:44;;;;;;;4.65;2.78;;;12.80;99.90;;;;;;5073084;28;20396;-67
2022/10/16 05:37:11;;;;;;;5.50;3.08;;;12.70;99.90;;;;;;5073095;28;20047;-67
2022/10/16 05:39:37;;;;;;;5.32;2.97;;;12.70;99.90;;;;;;5073333;28;20447;-67
2022/10/16 05:42:03;;;;;;;3.78;2.80;;;12.70;99.90;;;;;;5073188;28;20033;-67
2022/10/16 05:44:29;;;;;;;4.40;3.10;;;12.70;99.90;;;;;;5071586;28;20048;-67
2022/10/16 05:46:54;;;;;;;3.83;2.50;;;12.70;99.90;;;;;;5073253;28;20111;-67
2022/10/16 05:49:20;;;;;;;4.32;2.70;;;12.70;99.90;;;;;;5072993;28;20044;-67
2022/10/16 05:51:45;;;;;;;3.78;2.50;;;12.70;99.90;;;;;;5071823;28;20072;-67
2022/10/16 05:54:11;;;;;;;6.32;3.00;;;12.70;99.90;;;;;;5072541;28;20111;-67
2022/10/16 05:56:37;;;;;;;7.63;2.42;;;12.70;99.90;;;;;;5072852;28;20079;-67
2022/10/16 05:59:05;;;;;;;5.70;2.67;;;12.70;99.90;;;;;;5072546;28;20036;-67
2022/10/16 06:01:31;;;;;;;3.92;3.15;;;12.70;99.90;;;;;;5072797;28;20497;-67
2022/10/16 06:03:57;;;;;;;4.20;2.38;;;12.70;99.90;;;;;;5070273;28;20079;-67
2022/10/16 06:06:26;;;;;;;3.67;2.50;;;12.70;99.90;;;;;;5069913;28;20768;-67
2022/10/16 06:08:53;;;;;;;6.68;2.45;;;12.70;99.90;;;;;;5070228;28;20032;-67
2022/10/16 06:11:21;;;;;;;2.85;2.28;;;12.70;99.90;;;;;;5069861;28;20052;-67
2022/10/16 06:13:56;;;;;;;5.85;2.30;;;12.70;99.90;;;;;;5069881;28;20052;-67
2022/10/16 06:16:23;;;;;;;2.50;1.95;;;12.70;99.90;;;;;;5070010;28;20084;-67
2022/10/16 06:18:51;;;;;;;4.82;2.25;;;12.70;99.90;;;;;;5072409;28;20053;-67
2022/10/16 06:21:19;;;;;;;5.05;2.38;;;12.80;99.90;;;;;;5071821;28;20048;-67
2022/10/16 06:23:48;;;;;;;5.68;2.47;;;12.70;99.90;;;;;;5071678;28;20044;-67
2022/10/16 06:26:15;;;;;;;4.30;2.40;;;12.70;99.90;;;;;;5071717;28;20040;-67
2022/10/16 06:28:41;;;;;;;2.80;2.20;;;12.70;99.90;;;;;;5072179;28;20033;-67
2022/10/16 06:31:09;;;;;;;3.70;2.42;;;12.70;99.90;;;;;;5072127;28;20123;-67
2022/10/16 06:33:36;;;;;;;3.20;2.00;;;12.70;99.90;;;;;;5072099;28;20524;-67
2022/10/16 06:36:10;;;;;;;4.20;2.92;;;12.80;99.90;;;;;;5071898;28;20139;-67
2022/10/16 06:38:37;;;;;;;4.60;2.08;;;12.80;99.90;;;;;;5072123;28;20045;-68
2022/10/16 06:41:03;;;;;;;6.40;2.25;;;12.80;99.90;;;;;;5072010;28;20130;-67
2022/10/16 06:43:34;;;;;;;2.45;2.05;;;12.80;99.90;;;;;;5071841;28;20044;-67
2022/10/16 06:46:01;;;;;;;6.78;2.50;;;12.80;99.90;;;;;;5070258;28;20033;-67
2022/10/16 06:48:28;;;;;;;3.15;2.08;;;12.80;99.90;;;;;;5072113;28;20032;-70
2022/10/16 06:51:09;;;;;;;4.03;2.17;;;12.80;99.90;;;;;;5068602;28;20450;-67
2022/10/16 06:53:36;;;;;;;4.68;2.30;;;12.80;99.90;;;;;;5069957;28;20040;-67
2022/10/16 06:56:13;;;;;;;6.10;2.30;;;12.80;99.90;;;;;;5070468;28;20404;-67
2022/10/16 06:58:39;;;;;;;2.70;1.92;;;12.80;99.90;;;;;;5071723;28;20075;-67
2022/10/16 07:01:05;;;;;;;3.03;2.72;;;12.90;99.90;;;;;;5070166;28;20048;-67
2022/10/16 07:03:32;;;;;;;2.20;1.83;;;12.90;99.90;;;;;;5071731;28;20033;-67
2022/10/16 07:06:02;;;;;;;3.35;2.92;;;12.90;99.90;;;;;;5071083;28;20037;-67
2022/10/16 07:08:27;;;;;;;4.45;2.30;;;12.90;99.90;;;;;;5071643;28;20068;-67
2022/10/16 07:11:01;;;;;;;4.13;2.38;;;13.00;99.90;;;;;;5070651;28;20051;-67
2022/10/16 07:13:27;;;;;;;1.95;1.75;;;13.00;99.90;;;;;;5071472;28;20132;-67
2022/10/16 07:15:52;;;;;;;6.97;2.17;;;13.00;99.90;;;;;;5071066;28;20127;-67
2022/10/16 07:18:18;;;;;;;3.33;2.00;;;13.10;99.90;;;;;;5071503;28;20048;-67
2022/10/16 07:20:43;;;;;;;10.68;2.67;;;13.10;99.90;;;;;;5069785;28;20071;-67
2022/10/16 07:23:09;;;;;;;6.63;2.42;;;13.10;99.90;;;;;;5069751;28;20400;-68
2022/10/16 07:25:34;;;;;;;3.88;2.17;;;13.10;99.90;;;;;;5069493;28;20455;-67
2022/10/16 07:28:00;;;;;;;3.30;2.15;;;13.10;99.90;;;;;;5071311;28;20039;-67
2022/10/16 07:30:25;;;;;;;2.17;1.98;;;13.10;99.90;;;;;;5071239;28;20048;-67
2022/10/16 07:32:51;;;;;;;3.70;2.10;;;13.10;99.90;;;;;;5069743;28;20048;-67
2022/10/16 07:35:16;;;;;;;3.63;2.08;;;13.10;99.90;;;;;;5070724;28;20036;-67
2022/10/16 07:37:46;;;;;;;3.42;2.00;;;13.20;99.90;;;;;;5071184;28;20149;-67
2022/10/16 07:40:11;;;;;;;4.68;2.35;;;13.20;99.90;;;;;;5071062;28;20089;-67
2022/10/16 07:42:37;;;;;;;4.60;2.28;;;13.30;99.90;;;;;;5069750;28;20040;-67
2022/10/16 07:45:03;;;;;;;4.32;1.73;;;13.30;99.90;;;;;;5070762;28;20650;-67
2022/10/16 07:47:28;;;;;;;2.55;2.03;;;13.40;99.90;;;;;;5071022;28;20374;-67
2022/10/16 07:49:54;;;;;;;5.25;2.00;;;13.40;99.90;;;;;;5070818;28;20120;-67
2022/10/16 07:52:19;;;;;;;4.82;1.70;;;13.40;99.90;;;;;;5070701;28;20115;-67
2022/10/16 07:54:45;;;;;;;3.92;2.00;;;13.40;99.90;;;;;;5069029;28;20044;-67
2022/10/16 07:57:10;;;;;;;6.18;1.90;;;13.40;99.90;;;;;;5070853;28;20037;-67
2022/10/16 07:59:36;;;;;;;4.32;1.63;;;13.50;99.90;;;;;;5070906;28;20036;-67
2022/10/16 08:02:01;;;;;;;4.07;1.92;;;13.50;99.90;;;;;;5070860;28;20079;-67
2022/10/16 08:04:27;;;;;;;2.70;1.70;;;13.50;99.90;;;;;;5070674;28;21354;-74
2022/10/16 08:06:54;;;;;;;2.67;1.70;;;13.50;99.90;;;;;;5070486;28;20105;-67
2022/10/16 08:09:19;;;;;;;3.10;1.67;;;13.50;99.90;;;;;;5070779;28;20037;-66
2022/10/16 08:11:45;;;;;;;4.53;1.80;;;13.60;99.90;;;;;;5070544;28;20389;-66
2022/10/16 08:14:10;;;;;;;4.80;1.65;;;13.60;99.90;;;;;;5070195;28;20552;-67
2022/10/16 08:16:36;;;;;;;9.35;1.80;;;13.60;99.90;;;;;;5070668;28;20032;-67
2022/10/16 08:19:02;;;;;;;2.00;1.35;;;13.60;99.90;;;;;;5070457;28;20040;-67
2022/10/16 08:21:28;;;;;;;6.72;1.70;;;13.60;99.90;;;;;;5071029;28;20089;-67
2022/10/16 08:23:54;;;;;;;2.80;1.35;;;13.70;99.90;;;;;;5074555;28;20076;-67
2022/10/16 08:26:20;;;;;;;4.50;1.90;;;13.70;99.90;;;;;;5074805;28;20044;-68
2022/10/16 08:28:48;;;;;;;1.95;1.60;;;13.70;99.90;;;;;;5074791;28;20044;-67
2022/10/16 08:31:15;;;;;;;5.00;2.30;;;13.80;99.90;;;;;;5074529;28;20032;-66
2022/10/16 08:33:46;;;;;;;1.92;1.42;;;13.80;99.90;;;;;;5074404;28;20519;-67
2022/10/16 08:36:12;;;;;;;2.72;1.50;;;13.80;99.90;;;;;;5074626;28;20051;-67
2022/10/16 08:38:38;;;;;;;1.77;1.50;;;13.80;99.90;;;;;;5074517;28;20045;-67
2022/10/16 08:41:40;;;;;;;2.83;1.67;;;13.90;99.90;;;;;;5074359;28;20044;-68
2022/10/16 08:44:37;;;;;;;3.45;1.40;;;13.90;99.90;;;;;;5073791;28;20141;-68
2022/10/16 08:47:38;;;;;;;3.22;1.90;;;13.90;99.90;;;;;;5073141;28;20069;-68
2022/10/16 08:50:13;;;;;;;5.03;1.75;;;14.00;99.90;;;;;;5072440;28;20047;-68
2022/10/16 08:52:41;;;;;;;3.55;1.52;;;14.10;99.90;;;;;;5071549;28;20044;-68
2022/10/16 08:55:32;;;;;;;6.88;2.25;;;14.10;99.90;;;;;;5060505;28;20048;-68
2022/10/16 08:57:58;;;;;;;3.00;1.70;;;14.10;99.90;;;;;;5064416;28;20033;-68
2022/10/16 09:00:25;;;;;;;4.43;1.80;;;14.10;99.90;;;;;;5060895;28;20040;-68
2022/10/16 09:03:10;;;;;;;2.85;1.40;;;14.10;99.90;;;;;;5063575;28;20125;-68
2022/10/16 09:06:17;;;;;;;4.93;1.35;;;14.10;99.90;;;;;;5063683;28;20037;-68
2022/10/16 09:09:10;;;;;;;2.00;1.50;;;14.10;99.90;;;;;;5065099;28;20082;-68
2022/10/16 09:11:49;;;;;;;4.68;1.50;;;14.10;99.90;;;;;;5064125;28;20086;-68
2022/10/16 09:14:17;;;;;;;5.00;1.38;;;14.20;99.90;;;;;;5068784;28;20044;-68
2022/10/16 09:16:51;;;;;;;4.15;1.40;;;14.20;99.90;;;;;;5073638;28;20041;-68
2022/10/16 09:19:25;;;;;;;5.18;2.22;;;14.30;99.90;;;;;;5072152;28;20098;-68
2022/10/16 09:21:52;;;;;;;6.03;1.63;;;14.30;99.90;;;;;;5072955;28;20036;-71
2022/10/16 09:24:21;;;;;;;2.28;1.40;;;14.30;99.90;;;;;;5073059;28;20036;-66
2022/10/16 09:26:47;;;;;;;4.35;1.60;;;14.40;99.90;;;;;;5072369;28;20067;-67
2022/10/16 09:29:14;;;;;;;4.15;1.40;;;14.40;99.90;;;;;;5073378;28;20112;-67
2022/10/16 09:31:41;;;;;;;1.55;1.17;;;14.50;99.90;;;;;;5073303;28;20028;-67
2022/10/16 09:34:20;;;;;;;2.97;1.60;;;14.50;99.90;;;;;;5072020;28;20493;-67
2022/10/16 09:36:46;;;;;;;1.77;1.05;;;14.50;99.90;;;;;;5073605;28;20043;-67
2022/10/16 09:39:12;;;;;;;6.68;1.35;;;14.60;99.90;;;;;;5072132;28;20583;-67
2022/10/16 09:41:41;;;;;;;4.55;1.42;;;14.60;99.90;;;;;;5073114;28;20050;-67
2022/10/16 09:44:29;;;;;;;4.40;1.27;;;14.70;99.90;;;;;;5072989;28;20044;-66
2022/10/16 09:47:13;;;;;;;6.35;1.38;;;14.70;99.90;;;;;;5069194;28;20098;-67
2022/10/16 09:49:38;;;;;;;8.90;1.65;;;14.70;99.90;;;;;;5071624;28;20047;-67
2022/10/16 09:52:15;;;;;;;6.95;1.50;;;14.70;99.90;;;;;;5072467;28;20040;-70
2022/10/16 09:54:58;;;;;;;4.32;1.08;;;14.80;99.90;;;;;;5061121;28;20075;-67
2022/10/16 09:57:24;;;;;;;5.10;1.55;;;14.80;99.90;;;;;;5064696;28;20119;-68
2022/10/16 09:59:55;;;;;;;3.80;1.30;;;14.80;99.90;;;;;;5062589;28;20041;-67
2022/10/16 10:02:31;;;;;;;6.85;1.70;;;14.80;99.90;;;;;;5065736;28;20086;-67
2022/10/16 10:04:57;;;;;;;6.63;1.52;;;14.90;99.90;;;;;;5063210;28;20041;-67
2022/10/16 10:07:29;;;;;;;2.92;1.35;;;14.90;99.90;;;;;;5069563;28;20220;-67
2022/10/16 10:09:57;;;;;;;5.20;1.27;;;14.90;99.90;;;;;;5072692;28;20117;-67
2022/10/16 10:12:26;;;;;;;5.55;1.15;;;14.90;99.90;;;;;;5072576;28;20040;-67
2022/10/16 10:14:57;;;;;;;4.78;1.20;;;14.90;99.90;;;;;;5072124;28;20119;-68
2022/10/16 10:17:27;;;;;;;4.72;1.02;;;15.00;99.90;;;;;;5072662;28;20079;-67
2022/10/16 10:20:00;;;;;;;5.75;1.52;;;15.00;99.90;;;;;;5072490;28;20048;-68
2022/10/16 10:22:44;;;;;;;4.45;1.25;;;15.00;99.90;;;;;;5072417;28;20059;-68
2022/10/16 10:25:12;;;;;;;11.07;1.48;;;15.10;99.90;;;;;;5072080;28;20048;-67
2022/10/16 10:27:43;;;;;;;5.20;1.30;;;15.10;99.90;;;;;;5072358;28;20036;-67
2022/10/16 10:30:23;;;;;;;7.50;1.42;;;15.20;99.90;;;;;;5072294;28;20048;-67
2022/10/16 10:33:01;;;;;;;2.97;1.45;;;15.20;99.90;;;;;;5071913;28;20076;-67
2022/10/16 10:35:44;;;;;;;7.07;1.77;;;15.20;99.90;;;;;;5072043;28;20119;-68
2022/10/16 10:38:23;;;;;;;4.57;1.10;;;15.20;99.90;;;;;;5072274;28;20036;-68
2022/10/16 10:41:14;;;;;;;6.65;1.33;;;15.30;99.90;;;;;;5071988;28;20512;-68
2022/10/16 10:43:58;;;;;;;6.50;1.88;;;15.40;99.90;;;;;;5071778;28;20463;-68
2022/10/16 10:46:38;;;;;;;7.60;1.67;;;15.40;99.90;;;;;;5071850;28;20051;-68
2022/10/16 10:49:23;;;;;;;8.93;1.70;;;15.40;99.90;;;;;;5071780;28;20040;-69
2022/10/16 10:52:00;;;;;;;11.85;1.20;;;15.50;99.90;;;;;;5072040;28;20041;-70
2022/10/16 10:54:39;;;;;;;5.72;1.48;;;15.50;99.90;;;;;;5071426;28;20039;-68
2022/10/16 10:57:10;;;;;;;5.07;1.17;;;15.50;99.90;;;;;;5071454;28;20063;-68
2022/10/16 10:59:38;;;;;;;7.00;1.20;;;15.50;99.90;;;;;;5071453;28;20084;-68
2022/10/16 11:02:32;;;;;;;6.40;1.52;;;15.50;99.90;;;;;;5071895;28;20433;-67
2022/10/16 11:05:19;;;;;;;6.88;1.42;;;15.50;99.90;;;;;;5070980;28;20453;-67
2022/10/16 11:07:52;;;;;;;7.85;1.63;;;15.60;99.90;;;;;;5066981;28;20032;-68
2022/10/16 11:10:22;;;;;;;;;;;15.70;99.90;;;;;;5067453;28;20048;-68
2022/10/16 11:12:54;;;;;;;7.05;1.10;;;15.70;99.90;;;;;;5070638;28;19990;-67
2022/10/16 11:15:30;;;;;;;15.65;1.40;;;15.70;99.90;;;;;;5064465;28;20040;-67
2022/10/16 11:18:11;;;;;;;8.02;1.23;;;15.60;99.90;;;;;;5070628;28;20040;-68
2022/10/16 11:20:48;;;;;;;6.38;1.58;;;15.70;99.90;;;;;;5070906;28;20043;-68
2022/10/16 11:23:25;;;;;;;9.02;1.40;;;15.70;99.90;;;;;;5070768;28;20322;-68
2022/10/16 11:25:51;;;;;;;9.10;1.33;;;15.80;99.90;;;;;;5069540;28;20040;-68
2022/10/16 11:28:25;;;;;;;8.90;2.03;;;15.80;99.90;;;;;;5070145;28;20036;-68
2022/10/16 11:31:05;;;;;;;5.93;1.15;;;16.00;99.90;;;;;;5068430;28;20118;-69
2022/10/16 11:33:46;;;;;;;6.10;1.40;;;15.90;99.90;;;;;;5070073;28;20044;-69
2022/10/16 11:36:33;;;;;;;6.35;1.20;;;15.90;99.90;;;;;;5070997;28;20079;-70
2022/10/16 11:39:07;;;;;;;5.72;2.40;;;15.90;99.90;;;;;;5070877;28;20084;-67
2022/10/16 11:41:37;;;;;;;4.85;1.20;;;15.90;99.90;;;;;;5070490;28;20044;-68
2022/10/16 11:44:35;;;;;;;7.25;1.40;;;15.90;99.90;;;;;;5070860;28;20044;-70
2022/10/16 11:47:04;;;;;;;4.78;1.40;;;15.80;99.90;;;;;;5070806;28;20041;-68
2022/10/16 11:49:32;;;;;;;5.65;1.20;;;15.90;99.90;;;;;;5070840;28;20037;-68
2022/10/16 11:52:23;;;;;;;7.85;2.05;;;16.00;99.90;;;;;;5070588;28;20047;-68
2022/10/16 11:54:54;;;;;;;3.67;1.23;;;16.00;99.90;;;;;;5070336;28;20048;-67
2022/10/16 11:57:26;;;;;;;10.35;1.88;;;16.10;99.90;;;;;;5070321;28;20048;-67
2022/10/16 12:00:22;;;;;;;4.70;1.55;;;16.10;99.90;;;;;;5070834;28;20037;-67
2022/10/16 12:03:20;;;;;;;5.07;1.27;;;16.20;99.90;;;;;;5070676;28;20043;-67
2022/10/16 12:06:14;;;;;;;5.65;1.40;;;16.30;99.90;;;;;;5070374;28;20048;-67
2022/10/16 12:08:40;;;;;;;9.38;1.63;;;16.40;99.90;;;;;;5070629;28;20044;-67
2022/10/16 12:11:28;;;;;;;11.80;1.70;;;16.40;99.90;;;;;;5070753;28;20047;-67
2022/10/16 12:14:19;;;;;;;5.20;1.50;;;16.50;99.90;;;;;;5070018;28;20488;-67
2022/10/16 12:16:59;;;;;;;2.25;0.95;;;16.50;99.90;;;;;;5070913;28;20040;-67
2022/10/16 12:19:29;;;;;;;6.10;1.35;;;16.40;99.90;;;;;;5070461;28;20428;-67
2022/10/16 12:22:01;;;;;;;7.07;1.83;;;16.40;99.90;;;;;;5071019;28;20361;-67
2022/10/16 12:24:33;;;;;;;6.00;1.33;;;16.40;99.90;;;;;;5070069;28;20485;-67
2022/10/16 12:26:59;;;;;;;6.90;1.95;;;16.30;99.90;;;;;;5070525;28;20051;-67
2022/10/16 12:29:42;;;;;;;7.03;2.10;;;16.30;99.90;;;;;;5070293;28;20040;-67
2022/10/16 12:32:26;;;;;;;11.52;1.90;;;16.30;99.90;;;;;;5070270;28;20032;-67
2022/10/16 12:34:52;;;;;;;6.93;1.55;;;16.40;99.90;;;;;;5070218;28;20059;-67
2022/10/16 12:37:23;;;;;;;7.38;1.48;;;16.50;99.90;;;;;;5070385;28;20493;-67
2022/10/16 12:39:51;;;;;;;8.88;1.40;;;16.40;99.90;;;;;;5070242;28;20053;-67
2022/10/16 12:42:25;;;;;;;5.15;1.17;;;16.40;99.90;;;;;;5068938;28;20044;-67
2022/10/16 12:44:52;;;;;;;11.05;1.73;;;16.50;99.90;;;;;;5068974;28;20083;-67
2022/10/16 12:47:23;;;;;;;3.03;1.20;;;16.50;99.90;;;;;;5070675;28;20086;-67
2022/10/16 12:49:54;;;;;;;6.43;1.60;;;16.50;99.90;;;;;;5070375;28;20087;-67
2022/10/16 12:52:37;;;;;;;6.53;1.90;;;16.50;99.90;;;;;;5070637;28;20032;-67
2022/10/16 12:55:12;;;;;;;5.65;1.20;;;16.50;99.90;;;;;;5069750;28;20044;-67
2022/10/16 12:57:59;;;;;;;6.43;1.80;;;16.50;99.90;;;;;;5070222;28;20049;-67
2022/10/16 13:00:50;;;;;;;7.82;1.38;;;16.50;99.90;;;;;;5070168;28;20083;-67
2022/10/16 13:04:00;;;;;;;10.88;1.48;;;16.50;99.90;;;;;;5070435;28;20115;-67
2022/10/16 13:06:37;;;;;;;5.57;1.25;;;16.50;99.90;;;;;;5070037;28;20044;-67